Time;durP1;ratioP1;P1;durP2;ratioP2;P2;SDS_P1;SDS_P2;PMS_P1;PMS_P2;Temp;Humidity;BMP_temperature;BMP_pressure;BME280_temperature;BME280_humidity;BME280_pressure;Samples;Min_cycle;Max_cycle;Signal;HPM_P1;HPM_P2
2023/02/25 00:01:11;;;;;;;12.07;8.15;;;333.30;2329.60;;;;;;4996723;28;20121;-84
2023/02/25 00:03:38;;;;;;;12.75;7.93;;;333.30;2329.60;;;;;;4995548;28;20046;-84
2023/02/25 00:06:12;;;;;;;14.35;8.30;;;333.30;2329.60;;;;;;4996712;28;20484;-84
2023/02/25 00:08:38;;;;;;;15.35;8.35;;;333.30;2329.60;;;;;;4996499;28;20380;-82
2023/02/25 00:11:06;;;;;;;18.00;9.00;;;333.40;2329.60;;;;;;4987701;28;20057;-86
2023/02/25 00:13:33;;;;;;;19.25;10.75;;;333.40;2329.60;;;;;;4996473;28;20026;-87
2023/02/25 00:16:01;;;;;;;16.08;8.30;;;333.40;2329.60;;;;;;4980788;28;20081;-85
2023/02/25 00:18:27;;;;;;;13.13;7.40;;;333.30;2329.60;;;;;;4980719;28;20026;-86
2023/02/25 00:20:53;;;;;;;12.40;7.97;;;333.30;2329.60;;;;;;4998848;28;20034;-83
2023/02/25 00:23:19;;;;;;;14.40;7.95;;;333.30;2329.60;;;;;;4982116;28;20493;-83
2023/02/25 00:25:46;;;;;;;12.85;8.25;;;332.90;2329.60;;;;;;4998530;28;20030;-84
2023/02/25 00:28:12;;;;;;;18.38;8.02;;;333.30;2329.60;;;;;;4980597;28;20026;-84
2023/02/25 00:30:39;;;;;;;22.30;13.27;;;333.30;2329.60;;;;;;4980444;28;20126;-85
2023/02/25 00:33:05;;;;;;;16.70;8.45;;;333.40;2329.60;;;;;;4980298;28;20082;-84
2023/02/25 00:35:31;;;;;;;16.40;7.15;;;333.20;2329.60;;;;;;4980575;28;20026;-85
2023/02/25 00:37:57;;;;;;;35.75;21.50;;;333.30;2329.60;;;;;;4997831;28;20085;-81
2023/02/25 00:40:23;;;;;;;41.80;22.98;;;333.20;2329.60;;;;;;4980164;28;20034;-83
2023/02/25 00:42:49;;;;;;;72.30;43.90;;;333.20;2329.60;;;;;;4980302;28;20049;-84
2023/02/25 00:45:15;;;;;;;26.40;15.55;;;333.20;2329.60;;;;;;4979824;28;20065;-83
2023/02/25 00:47:41;;;;;;;20.23;10.52;;;333.10;2329.60;;;;;;4980070;28;20147;-84
2023/02/25 00:50:08;;;;;;;15.38;8.55;;;333.20;2329.60;;;;;;4980255;28;20080;-86
2023/02/25 00:52:37;;;;;;;16.30;9.05;;;333.20;2329.60;;;;;;4979907;28;20058;-85
2023/02/25 00:55:08;;;;;;;21.13;10.13;;;333.20;2329.60;;;;;;4980071;28;20030;-86
2023/02/25 00:57:33;;;;;;;15.93;9.20;;;333.20;2329.60;;;;;;4980192;28;20036;-85
2023/02/25 00:59:59;;;;;;;24.38;13.70;;;333.20;2329.60;;;;;;4996990;28;20031;-86
2023/02/25 01:02:25;;;;;;;20.75;11.50;;;333.20;2329.60;;;;;;4979985;28;20030;-82
2023/02/25 01:04:50;;;;;;;26.85;14.70;;;333.20;2329.60;;;;;;4963180;28;20043;-85
2023/02/25 01:07:16;;;;;;;20.15;13.00;;;333.20;2329.60;;;;;;4973395;28;20538;-83
2023/02/25 01:09:42;;;;;;;28.90;15.32;;;333.20;2329.60;;;;;;4960453;28;20022;-84
2023/02/25 01:12:08;;;;;;;15.57;9.27;;;333.10;2329.60;;;;;;4977455;28;20105;-84
2023/02/25 01:14:34;;;;;;;13.55;8.88;;;333.20;2329.60;;;;;;4960503;28;20058;-82
2023/02/25 01:17:01;;;;;;;21.90;12.48;;;333.20;2329.60;;;;;;4977805;28;20030;-85
2023/02/25 01:19:28;;;;;;;24.65;12.70;;;333.20;2329.60;;;;;;4960395;28;20053;-84
2023/02/25 01:21:56;;;;;;;15.23;8.77;;;333.20;2329.60;;;;;;4959947;28;20043;-84
2023/02/25 01:24:29;;;;;;;13.25;8.73;;;333.20;2329.60;;;;;;4977391;28;20022;-83
2023/02/25 01:26:57;;;;;;;15.50;9.00;;;333.20;2329.60;;;;;;4960402;28;20356;-83
2023/02/25 01:29:26;;;;;;;17.20;8.77;;;333.20;2329.60;;;;;;4959958;28;20402;-84
2023/02/25 01:31:53;;;;;;;16.70;9.40;;;333.20;2329.60;;;;;;4960186;28;20027;-84
2023/02/25 01:34:20;;;;;;;15.35;9.32;;;333.40;2329.60;;;;;;4959773;28;20510;-84
2023/02/25 01:36:46;;;;;;;17.75;10.90;;;;;;;;;;4960030;28;20471;-84
2023/02/25 01:39:13;;;;;;;16.67;9.57;;;;;;;;;;4976052;28;20028;-83
2023/02/25 01:41:39;;;;;;;17.23;8.88;;;;;;;;;;4959662;28;20038;-84
2023/02/25 01:44:17;;;;;;;24.42;13.52;;;333.20;2329.60;;;;;;4959806;28;20490;-84
2023/02/25 01:46:45;;;;;;;27.70;13.50;;;333.00;2329.60;;;;;;4959722;28;20471;-83
2023/02/25 01:49:27;;;;;;;18.23;12.27;;;333.00;2329.60;;;;;;4959509;28;20027;-84
2023/02/25 01:52:05;;;;;;;17.73;11.10;;;332.90;2329.60;;;;;;4977025;28;20026;-83
2023/02/25 01:54:32;;;;;;;26.42;12.65;;;332.90;2329.60;;;;;;4976984;28;20027;-83
2023/02/25 01:56:58;;;;;;;25.75;15.68;;;332.90;2329.60;;;;;;4959517;28;20038;-81
2023/02/25 01:59:27;;;;;;;28.85;15.25;;;;;;;;;;4959358;28;20417;-83
2023/02/25 02:01:53;;;;;;;30.13;15.20;;;;;;;;;;4975417;28;20381;-83
2023/02/25 02:04:20;;;;;;;22.08;12.48;;;;;;;;;;4974966;28;20514;-84
2023/02/25 02:06:47;;;;;;;22.58;12.40;;;;;;;;;;4975548;28;20031;-84
2023/02/25 02:09:15;;;;;;;24.75;13.05;;;;;;;;;;4975342;28;20470;-84
2023/02/25 02:11:41;;;;;;;26.15;13.77;;;;;;;;;;4975520;28;20042;-83
2023/02/25 02:14:09;;;;;;;31.50;14.32;;;;;;;;;;4975627;28;20019;-83
2023/02/25 02:16:44;;;;;;;30.38;14.68;;;;;;;;;;4975131;28;20111;-84
2023/02/25 02:19:30;;;;;;;25.80;14.25;;;;;;;;;;4976542;28;20356;-85
2023/02/25 02:22:08;;;;;;;28.52;14.40;;;;;;;;;;4969242;28;20058;-85
2023/02/25 02:24:53;;;;;;;20.13;11.73;;;;;;;;;;4976195;28;20509;-83
2023/02/25 02:27:25;;;;;;;30.08;15.48;;;;;;;;;;4976343;28;20026;-83
2023/02/25 02:30:08;;;;;;;27.23;15.43;;;307.60;2304.00;;;;;;4991320;28;20035;-83
2023/02/25 02:32:46;;;;;;;30.42;16.83;;;307.40;2304.00;;;;;;4982530;28;20257;-82
2023/02/25 02:35:15;;;;;;;57.97;30.40;;;307.30;2304.00;;;;;;4958779;28;20035;-84
2023/02/25 02:38:07;;;;;;;57.05;32.38;;;307.30;2304.00;;;;;;4959056;28;20030;-87
2023/02/25 02:40:54;;;;;;;62.67;32.97;;;282.50;2278.40;;;;;;4959177;28;20085;-85
2023/02/25 02:43:41;;;;;;;32.00;18.65;;;282.50;2278.40;;;;;;4959397;28;20031;-87
2023/02/25 02:46:20;;;;;;;28.55;14.63;;;282.30;2278.40;;;;;;4958485;28;20030;-87
2023/02/25 02:49:01;;;;;;;35.55;19.20;;;282.20;2278.40;;;;;;4958732;28;20121;-87
2023/02/25 02:51:38;;;;;;;33.45;17.02;;;282.10;2278.40;;;;;;4958593;28;20037;-86
2023/02/25 02:54:07;;;;;;;33.78;15.82;;;282.10;2278.40;;;;;;4976006;28;20022;-88
2023/02/25 02:56:37;;;;;;;30.20;16.63;;;282.10;2278.40;;;;;;4958357;28;20027;-88
2023/02/25 02:59:09;;;;;;;33.10;17.92;;;282.00;2278.40;;;;;;4958572;28;20030;-86
2023/02/25 03:01:40;;;;;;;23.67;14.43;;;282.00;2278.40;;;;;;4958723;28;20364;-88
2023/02/25 03:04:09;;;;;;;29.05;16.15;;;281.90;2278.40;;;;;;4962082;28;20054;-87
2023/02/25 03:06:41;;;;;;;35.03;19.42;;;282.00;2278.40;;;;;;4994546;28;20031;-86
2023/02/25 03:09:07;;;;;;;39.60;22.58;;;282.00;2278.40;;;;;;4995578;28;20109;-86
2023/02/25 03:11:33;;;;;;;45.00;24.02;;;282.10;2278.40;;;;;;4977841;28;20454;-87
2023/02/25 03:13:59;;;;;;;50.63;25.95;;;282.00;2278.40;;;;;;4977613;28;20030;-87
2023/02/25 03:16:33;;;;;;;38.08;20.95;;;282.00;2278.40;;;;;;4995390;28;20034;-87
2023/02/25 03:19:19;;;;;;;33.40;17.92;;;282.00;2278.40;;;;;;4977505;28;20121;-86
2023/02/25 03:21:48;;;;;;;46.00;23.25;;;281.70;2278.40;;;;;;4977626;28;20034;-88
2023/02/25 03:24:22;;;;;;;47.03;25.77;;;281.80;2278.40;;;;;;4977679;28;20459;-86
2023/02/25 03:26:51;;;;;;;40.63;24.33;;;281.80;2278.40;;;;;;4977740;28;20022;-87
2023/02/25 03:29:20;;;;;;;42.85;24.30;;;281.80;2278.40;;;;;;4979503;28;20029;-86
2023/02/25 03:31:55;;;;;;;26.90;15.13;;;281.60;2278.40;;;;;;4995956;28;20065;-87
2023/02/25 03:34:38;;;;;;;28.48;15.10;;;281.60;2278.40;;;;;;4994699;28;20084;-87
2023/02/25 03:37:22;;;;;;;37.05;17.17;;;281.60;2278.40;;;;;;4977470;28;20026;-86
2023/02/25 03:39:54;;;;;;;34.63;21.25;;;281.60;2278.40;;;;;;4977258;28;20058;-85
2023/02/25 03:42:24;;;;;;;34.78;18.75;;;281.60;2278.40;;;;;;4977245;28;20027;-87
2023/02/25 03:44:52;;;;;;;31.42;19.15;;;281.60;2278.40;;;;;;4994827;28;20034;-87
2023/02/25 03:47:21;;;;;;;35.45;19.05;;;256.90;2252.80;;;;;;4977317;28;20493;-87
2023/02/25 03:49:51;;;;;;;33.85;19.13;;;256.90;2252.80;;;;;;4981453;28;20027;-87
2023/02/25 03:52:20;;;;;;;30.00;17.88;;;281.60;2278.40;;;;;;4972770;28;20038;-86
2023/02/25 03:54:54;;;;;;;38.63;22.23;;;281.60;2278.40;;;;;;4977408;28;20031;-86
2023/02/25 03:57:25;;;;;;;30.85;19.40;;;281.60;2278.40;;;;;;4977244;28;20033;-87
2023/02/25 03:59:55;;;;;;;30.75;18.13;;;281.70;2278.40;;;;;;4978030;28;20038;-87
2023/02/25 04:02:31;;;;;;;30.50;18.48;;;281.70;2278.40;;;;;;4978016;28;20026;-86
2023/02/25 04:04:57;;;;;;;34.47;19.02;;;281.80;2278.40;;;;;;4978623;28;20117;-87
2023/02/25 04:07:23;;;;;;;28.48;17.67;;;281.80;2278.40;;;;;;4961887;28;20101;-87
2023/02/25 04:09:48;;;;;;;35.78;19.40;;;281.90;2278.40;;;;;;4958208;29;20434;-87
2023/02/25 04:12:14;;;;;;;33.88;20.92;;;281.90;2278.40;;;;;;4971187;28;20031;-87
2023/02/25 04:14:40;;;;;;;30.23;16.92;;;281.90;2278.40;;;;;;4974408;28;20034;-87
2023/02/25 04:17:06;;;;;;;30.83;16.75;;;281.90;2278.40;;;;;;4974189;28;20027;-86
2023/02/25 04:19:32;;;;;;;30.92;17.45;;;282.00;2278.40;;;;;;4976668;28;20023;-86
2023/02/25 04:21:59;;;;;;;34.85;18.42;;;282.00;2278.40;;;;;;4961123;28;20038;-85
2023/02/25 04:24:25;;;;;;;36.63;19.23;;;282.10;2278.40;;;;;;4961314;28;20027;-86
2023/02/25 04:26:57;;;;;;;36.88;19.50;;;282.20;2278.40;;;;;;4978927;28;20023;-86
2023/02/25 04:29:29;;;;;;;36.10;21.23;;;282.20;2278.40;;;;;;4958665;28;20036;-86
2023/02/25 04:31:55;;;;;;;35.90;19.35;;;282.30;2278.40;;;;;;4978575;28;20479;-85
2023/02/25 04:34:21;;;;;;;30.83;20.65;;;282.20;2278.40;;;;;;4961080;28;20062;-86
2023/02/25 04:36:47;;;;;;;31.88;18.38;;;282.30;2278.40;;;;;;4957706;29;20479;-88
2023/02/25 04:39:14;;;;;;;30.95;16.00;;;282.40;2278.40;;;;;;4954399;29;20035;-85
2023/02/25 04:41:41;;;;;;;31.25;18.17;;;282.30;2278.40;;;;;;4970349;28;20046;-86
2023/02/25 04:44:07;;;;;;;35.55;18.30;;;282.40;2278.40;;;;;;4978074;28;20031;-86
2023/02/25 04:46:39;;;;;;;33.22;15.18;;;281.70;2278.40;;;;;;4960919;28;20023;-87
2023/02/25 04:49:06;;;;;;;35.97;21.42;;;282.30;2278.40;;;;;;4961335;28;20118;-86
2023/02/25 04:51:32;;;;;;;36.50;20.33;;;282.20;2278.40;;;;;;4960678;28;20058;-87
2023/02/25 04:53:58;;;;;;;29.50;18.67;;;282.20;2278.40;;;;;;4978264;28;20078;-87
2023/02/25 04:56:24;;;;;;;26.17;15.23;;;282.30;2278.40;;;;;;4978332;28;20035;-85
2023/02/25 04:58:50;;;;;;;23.30;14.82;;;282.30;2278.40;;;;;;4959781;28;20058;-86
2023/02/25 05:01:16;;;;;;;36.25;21.00;;;282.40;2278.40;;;;;;4957500;28;20070;-86
2023/02/25 05:03:42;;;;;;;38.30;19.65;;;282.40;2278.40;;;;;;4953268;29;20166;-86
2023/02/25 05:06:08;;;;;;;29.02;19.15;;;282.40;2278.40;;;;;;4949807;29;20034;-86
2023/02/25 05:08:34;;;;;;;28.23;19.00;;;282.50;2278.40;;;;;;4940714;29;20030;-86
2023/02/25 05:11:01;;;;;;;28.23;19.45;;;307.40;2304.00;;;;;;4941173;29;20043;-86
2023/02/25 05:13:27;;;;;;;24.15;15.45;;;282.50;2278.40;;;;;;4941432;29;20028;-86
2023/02/25 05:16:06;;;;;;;31.85;21.63;;;307.20;2304.00;;;;;;4941205;29;20379;-86
2023/02/25 05:18:36;;;;;;;39.45;25.05;;;307.20;2304.00;;;;;;4958210;29;20039;-86
2023/02/25 05:21:01;;;;;;;40.63;25.80;;;307.20;2304.00;;;;;;4940806;29;20483;-85
2023/02/25 05:23:27;;;;;;;29.73;19.58;;;282.50;2278.40;;;;;;4957033;29;20028;-87
2023/02/25 05:25:53;;;;;;;25.80;16.75;;;282.50;2278.40;;;;;;4940894;29;20077;-87
2023/02/25 05:28:19;;;;;;;29.83;18.08;;;282.50;2278.40;;;;;;4941165;29;20024;-85
2023/02/25 05:30:45;;;;;;;27.40;17.67;;;282.50;2278.40;;;;;;4940768;29;20378;-86
2023/02/25 05:33:12;;;;;;;26.40;16.25;;;282.50;2278.40;;;;;;4940522;29;20023;-87
2023/02/25 05:35:39;;;;;;;33.53;19.42;;;282.50;2278.40;;;;;;4940781;29;20046;-84
2023/02/25 05:38:05;;;;;;;25.92;18.17;;;282.50;2278.40;;;;;;4957821;29;20027;-85
2023/02/25 05:40:31;;;;;;;31.00;17.90;;;282.50;2278.40;;;;;;4940368;29;20562;-85
2023/02/25 05:42:56;;;;;;;26.75;16.35;;;282.50;2278.40;;;;;;4957960;29;20059;-86
2023/02/25 05:45:22;;;;;;;41.28;21.95;;;282.50;2278.40;;;;;;4957778;29;20474;-86
2023/02/25 05:47:48;;;;;;;35.95;20.13;;;307.20;2304.00;;;;;;4956431;29;20039;-86
2023/02/25 05:50:14;;;;;;;34.22;17.40;;;307.20;2304.00;;;;;;4940507;29;20035;-85
2023/02/25 05:52:39;;;;;;;29.02;16.13;;;307.20;2304.00;;;;;;4946267;28;20031;-85
2023/02/25 05:55:08;;;;;;;23.67;14.13;;;307.20;2304.00;;;;;;4939961;29;20039;-87
2023/02/25 05:57:33;;;;;;;23.25;15.05;;;282.50;2278.40;;;;;;4956537;29;20489;-86
2023/02/25 06:00:00;;;;;;;29.55;16.77;;;282.50;2278.40;;;;;;4943220;28;20042;-85
2023/02/25 06:02:26;;;;;;;20.13;14.82;;;282.50;2278.40;;;;;;4958580;28;20030;-86
2023/02/25 06:04:55;;;;;;;24.52;15.45;;;282.50;2278.40;;;;;;4968470;28;20061;-86
2023/02/25 06:07:21;;;;;;;24.48;14.50;;;282.50;2278.40;;;;;;4976198;28;20027;-86
2023/02/25 06:09:46;;;;;;;34.70;17.58;;;282.50;2278.40;;;;;;4978511;28;20031;-85
2023/02/25 06:12:12;;;;;;;33.92;19.75;;;282.50;2278.40;;;;;;4978252;28;20030;-86
2023/02/25 06:14:38;;;;;;;27.00;17.08;;;282.50;2278.40;;;;;;4978216;28;20117;-85
2023/02/25 06:17:03;;;;;;;28.05;15.52;;;282.50;2278.40;;;;;;4978521;28;20033;-85
2023/02/25 06:19:29;;;;;;;27.00;16.70;;;282.50;2278.40;;;;;;4978553;28;20034;-84
2023/02/25 06:21:55;;;;;;;26.40;18.55;;;282.50;2278.40;;;;;;4978150;28;20044;-84
2023/02/25 06:24:22;;;;;;;30.73;20.45;;;282.50;2278.40;;;;;;4995905;28;20386;-85
2023/02/25 06:26:48;;;;;;;31.35;21.50;;;282.50;2278.40;;;;;;4996125;28;20031;-85
2023/02/25 06:29:13;;;;;;;34.55;22.25;;;307.20;2304.00;;;;;;4978408;28;20026;-84
2023/02/25 06:31:40;;;;;;;34.63;25.02;;;307.20;2304.00;;;;;;4978921;28;20030;-84
2023/02/25 06:34:06;;;;;;;40.92;27.17;;;307.30;2304.00;;;;;;4980177;28;20030;-84
2023/02/25 06:36:32;;;;;;;46.83;27.05;;;307.30;2304.00;;;;;;4999605;28;20378;-86
2023/02/25 06:38:58;;;;;;;36.00;24.85;;;307.20;2304.00;;;;;;4981262;28;20026;-84
2023/02/25 06:41:25;;;;;;;41.20;28.13;;;307.20;2304.00;;;;;;4977890;28;20386;-85
2023/02/25 06:43:51;;;;;;;49.33;30.98;;;307.70;2304.00;;;;;;4977777;28;20117;-84
2023/02/25 06:46:19;;;;;;;47.05;31.25;;;307.30;2304.00;;;;;;4977910;28;20027;-84
2023/02/25 06:48:45;;;;;;;53.75;33.63;;;307.30;2304.00;;;;;;4995367;28;20474;-85
2023/02/25 06:51:11;;;;;;;54.58;32.55;;;307.30;2304.00;;;;;;4977428;28;20034;-85
2023/02/25 06:53:41;;;;;;;52.22;36.40;;;307.30;2304.00;;;;;;4995230;28;20101;-85
2023/02/25 06:56:09;;;;;;;53.17;33.45;;;307.40;2304.00;;;;;;4977864;28;20030;-85
2023/02/25 06:58:36;;;;;;;56.38;33.20;;;307.50;2304.00;;;;;;4978081;28;20128;-85
2023/02/25 07:01:09;;;;;;;46.95;30.75;;;307.50;2304.00;;;;;;4976195;28;20478;-84
2023/02/25 07:03:35;;;;;;;53.45;34.00;;;307.60;2304.00;;;;;;4977194;28;20056;-87
2023/02/25 07:06:01;;;;;;;83.85;41.50;;;307.60;2304.00;;;;;;4977135;28;20125;-87
2023/02/25 07:08:27;;;;;;;274.65;105.65;;;307.70;2304.00;;;;;;4977478;28;20098;-86
2023/02/25 07:10:53;;;;;;;216.10;91.47;;;307.70;2304.00;;;;;;4977716;28;20038;-87
2023/02/25 07:13:18;;;;;;;140.00;64.55;;;307.80;2304.00;;;;;;4995163;28;20423;-85
2023/02/25 07:15:44;;;;;;;64.22;35.40;;;307.80;2304.00;;;;;;4977524;28;20458;-85
2023/02/25 07:18:10;;;;;;;55.80;28.80;;;307.80;2304.00;;;;;;4977755;28;20085;-86
2023/02/25 07:20:38;;;;;;;34.20;21.67;;;307.80;2304.00;;;;;;4977340;28;20034;-85
2023/02/25 07:23:05;;;;;;;67.78;41.67;;;307.90;2304.00;;;;;;4977239;28;20525;-86
2023/02/25 07:25:30;;;;;;;42.58;24.67;;;307.90;2304.00;;;;;;4994726;28;20026;-86
2023/02/25 07:27:56;;;;;;;52.20;30.15;;;307.90;2304.00;;;;;;4994339;28;20114;-86
2023/02/25 07:30:22;;;;;;;49.95;31.05;;;307.90;2304.00;;;;;;4987258;28;20032;-86
2023/02/25 07:32:48;;;;;;;44.92;28.80;;;333.10;2329.60;;;;;;4996718;28;20412;-86
2023/02/25 07:35:14;;;;;;;37.80;23.10;;;308.00;2304.00;;;;;;5013273;28;20033;-85
2023/02/25 07:37:39;;;;;;;40.08;23.48;;;308.00;2304.00;;;;;;4996782;28;20112;-86
2023/02/25 07:40:13;;;;;;;37.63;21.63;;;308.00;2304.00;;;;;;4996733;28;20034;-84
2023/02/25 07:42:42;;;;;;;31.50;17.90;;;308.10;2304.00;;;;;;4990615;28;20109;-85
2023/02/25 07:45:09;;;;;;;28.33;18.30;;;308.10;2304.00;;;;;;4977361;28;20077;-86
2023/02/25 07:47:35;;;;;;;32.67;19.20;;;308.10;2304.00;;;;;;4977447;28;20037;-84
2023/02/25 07:50:01;;;;;;;25.27;17.13;;;308.10;2304.00;;;;;;4977194;28;20037;-86
2023/02/25 07:52:27;;;;;;;26.65;16.25;;;308.10;2304.00;;;;;;4977433;28;20033;-86
2023/02/25 07:54:53;;;;;;;28.13;17.83;;;332.80;2329.60;;;;;;4994312;28;20105;-85
2023/02/25 07:57:19;;;;;;;35.85;20.42;;;332.80;2329.60;;;;;;4977053;28;20495;-85
2023/02/25 07:59:45;;;;;;;26.83;18.75;;;332.90;2329.60;;;;;;4994588;28;20525;-85
2023/02/25 08:02:11;;;;;;;25.13;17.38;;;332.90;2329.60;;;;;;4994424;28;20033;-85
2023/02/25 08:04:37;;;;;;;25.50;17.80;;;332.90;2329.60;;;;;;4976472;28;20046;-85
2023/02/25 08:07:03;;;;;;;25.08;17.75;;;332.90;2329.60;;;;;;4977259;28;20469;-85
2023/02/25 08:09:28;;;;;;;27.27;19.05;;;333.00;2329.60;;;;;;4994439;28;20038;-84
2023/02/25 08:11:54;;;;;;;40.25;22.02;;;333.10;2329.60;;;;;;4994113;28;20470;-86
2023/02/25 08:14:22;;;;;;;42.40;22.17;;;333.10;2329.60;;;;;;4994466;28;20030;-85
2023/02/25 08:16:49;;;;;;;40.50;25.98;;;333.20;2329.60;;;;;;4977152;28;20026;-83
2023/02/25 08:19:15;;;;;;;37.35;24.60;;;333.20;2329.60;;;;;;4977020;28;20027;-83
2023/02/25 08:21:41;;;;;;;44.90;27.73;;;333.30;2329.60;;;;;;4976904;28;20038;-84
2023/02/25 08:24:08;;;;;;;43.30;28.02;;;333.30;2329.60;;;;;;4977382;28;20478;-85
2023/02/25 08:26:34;;;;;;;41.95;24.00;;;333.30;2329.60;;;;;;4977346;28;20115;-84
2023/02/25 08:29:00;;;;;;;34.75;22.88;;;333.40;2329.60;;;;;;4977080;28;20069;-83
2023/02/25 08:31:26;;;;;;;50.85;27.15;;;333.50;2329.60;;;;;;4994424;28;20038;-84
2023/02/25 08:33:52;;;;;;;57.33;32.88;;;333.60;2329.60;;;;;;4978992;28;20026;-85
2023/02/25 08:36:23;;;;;;;49.25;27.80;;;333.70;2329.60;;;;;;4980630;28;20171;-83
2023/02/25 08:38:50;;;;;;;30.77;21.45;;;333.70;2329.60;;;;;;4980618;28;20121;-84
2023/02/25 08:41:17;;;;;;;42.45;23.15;;;358.50;2329.60;;;;;;4997677;28;20038;-84
2023/02/25 08:43:43;;;;;;;33.88;21.85;;;358.40;2329.60;;;;;;4980279;28;20058;-83
2023/02/25 08:46:09;;;;;;;34.20;21.48;;;333.70;2329.60;;;;;;4979979;28;20026;-83
2023/02/25 08:48:35;;;;;;;23.48;12.93;;;358.70;2329.60;;;;;;4979983;28;20049;-82
2023/02/25 08:51:09;;;;;;;26.05;12.27;;;358.80;2329.60;;;;;;4997444;28;20035;-82
2023/02/25 08:53:39;;;;;;;43.40;19.02;;;359.00;2329.60;;;;;;4979951;28;20034;-81
2023/02/25 08:56:10;;;;;;;33.50;13.77;;;359.30;2329.60;;;;;;4980556;28;20030;-81
2023/02/25 08:58:36;;;;;;;48.20;22.25;;;384.10;2329.60;;;;;;4997393;28;20030;-82
2023/02/25 09:01:07;;;;;;;27.88;16.13;;;384.20;2329.60;;;;;;4978118;28;20121;-82
2023/02/25 09:03:34;;;;;;;25.73;12.60;;;384.40;2304.00;;;;;;4996619;28;20146;-82
2023/02/25 09:06:00;;;;;;;40.20;22.52;;;384.50;2278.40;;;;;;4995920;28;20030;-81
2023/02/25 09:08:27;;;;;;;18.90;9.68;;;384.60;2278.40;;;;;;4979634;28;20084;-81
2023/02/25 09:10:52;;;;;;;41.75;18.77;;;384.70;2252.80;;;;;;4979323;28;20031;-80
2023/02/25 09:13:18;;;;;;;44.45;28.55;;;384.70;2252.80;;;;;;4979312;28;20033;-82
2023/02/25 09:15:44;;;;;;;25.70;13.45;;;384.90;2227.20;;;;;;4979472;28;20122;-85
2023/02/25 09:18:10;;;;;;;21.80;10.38;;;384.90;2227.20;;;;;;4979246;28;20080;-84
2023/02/25 09:20:36;;;;;;;26.13;14.82;;;409.60;2252.80;;;;;;4979114;28;20049;-84
2023/02/25 09:23:02;;;;;;;26.73;10.77;;;409.60;2252.80;;;;;;4995773;28;20027;-85
2023/02/25 09:25:29;;;;;;;17.75;10.80;;;409.60;2252.80;;;;;;4979490;28;20073;-81
2023/02/25 09:27:55;;;;;;;24.38;10.32;;;409.60;2252.80;;;;;;4978539;28;20022;-83
2023/02/25 09:30:21;;;;;;;22.42;11.07;;;409.70;2252.80;;;;;;5005803;28;20397;-81
2023/02/25 09:32:47;;;;;;;23.17;14.57;;;409.70;2252.80;;;;;;5008414;28;20030;-84
2023/02/25 09:35:12;;;;;;;25.90;11.63;;;409.70;2252.80;;;;;;5020395;28;20539;-82
2023/02/25 09:37:38;;;;;;;27.77;12.13;;;409.90;2201.60;;;;;;5019719;28;20156;-83
2023/02/25 09:40:05;;;;;;;18.80;9.98;;;410.00;2201.60;;;;;;4995711;28;20129;-83
2023/02/25 09:43:06;;;;;;;16.33;8.30;;;410.00;2201.60;;;;;;4999727;28;20022;-81
2023/02/25 09:45:33;;;;;;;21.00;10.45;;;410.10;2201.60;;;;;;4972651;28;20034;-82
2023/02/25 09:48:05;;;;;;;26.00;11.88;;;410.10;2201.60;;;;;;4998713;28;20031;-83
2023/02/25 09:50:37;;;;;;;20.67;9.57;;;410.00;2227.20;;;;;;4979176;28;20034;-85
2023/02/25 09:53:14;;;;;;;11.63;8.65;;;410.00;2201.60;;;;;;4978937;28;20030;-82
2023/02/25 09:55:44;;;;;;;25.15;15.40;;;410.00;2201.60;;;;;;4996046;28;20023;-82
2023/02/25 09:58:35;;;;;;;22.95;11.85;;;410.00;2227.20;;;;;;4978813;28;20069;-84
2023/02/25 10:01:03;;;;;;;23.65;9.95;;;410.10;2201.60;;;;;;4978877;28;20030;-83
2023/02/25 10:03:47;;;;;;;30.17;15.80;;;410.10;2201.60;;;;;;4978643;28;20030;-88
2023/02/25 10:06:34;;;;;;;18.58;11.38;;;410.20;2201.60;;;;;;4978752;28;20057;-83
2023/02/25 10:09:08;;;;;;;24.98;11.43;;;410.20;2176.00;;;;;;4978707;28;20654;-86
2023/02/25 10:11:59;;;;;;;17.52;9.57;;;410.20;2150.40;;;;;;4979358;28;20045;-85
2023/02/25 10:15:04;;;;;;;34.33;20.48;;;410.40;2150.40;;;;;;4978739;28;20034;-87
2023/02/25 10:18:01;;;;;;;21.85;14.02;;;410.40;2124.80;;;;;;4995585;28;20027;-85
2023/02/25 10:20:33;;;;;;;25.63;11.05;;;410.50;2124.80;;;;;;4994780;28;20038;-84
2023/02/25 10:23:16;;;;;;;18.00;9.23;;;410.50;2124.80;;;;;;4969531;28;20037;-83
2023/02/25 10:25:52;;;;;;;15.38;8.68;;;435.20;2124.80;;;;;;4959665;28;20383;-83
2023/02/25 10:28:19;;;;;;;19.98;10.02;;;435.20;2099.20;;;;;;4958680;28;20069;-82
2023/02/25 10:31:00;;;;;;;22.50;8.73;;;435.30;2124.80;;;;;;4958581;28;20434;-81
2023/02/25 10:33:30;;;;;;;23.42;10.55;;;435.30;2099.20;;;;;;4959208;28;20561;-81
2023/02/25 10:36:40;;;;;;;23.15;10.20;;;435.30;2124.80;;;;;;4976010;28;20035;-81
2023/02/25 10:39:08;;;;;;;30.42;18.20;;;435.30;2124.80;;;;;;4958792;28;20023;-83
2023/02/25 10:41:34;;;;;;;23.08;11.32;;;435.30;2124.80;;;;;;4975937;28;20053;-82
2023/02/25 10:44:01;;;;;;;23.35;11.07;;;435.40;2099.20;;;;;;4975936;28;20402;-82
2023/02/25 10:46:41;;;;;;;26.80;13.65;;;435.40;2099.20;;;;;;4956170;28;20109;-82
2023/02/25 10:49:22;;;;;;;24.38;18.02;;;435.40;2124.80;;;;;;4957315;28;20529;-81
2023/02/25 10:51:57;;;;;;;23.63;12.18;;;435.40;2124.80;;;;;;4958207;28;20030;-81
2023/02/25 10:54:23;;;;;;;22.85;12.68;;;435.50;2099.20;;;;;;4957754;28;20467;-80
2023/02/25 10:56:49;;;;;;;27.85;14.10;;;435.40;2099.20;;;;;;4951314;28;20031;-81
2023/02/25 10:59:36;;;;;;;33.25;17.10;;;435.50;2124.80;;;;;;4969088;28;20027;-82
2023/02/25 11:02:17;;;;;;;25.77;14.40;;;435.50;2099.20;;;;;;4929484;29;20031;-79
2023/02/25 11:04:44;;;;;;;27.55;16.83;;;435.60;2099.20;;;;;;4966493;28;20129;-81
2023/02/25 11:07:28;;;;;;;46.83;29.80;;;435.60;2073.60;;;;;;4957864;28;20146;-80
2023/02/25 11:10:13;;;;;;;31.80;18.75;;;435.60;2073.60;;;;;;4958048;28;20467;-80
2023/02/25 11:12:54;;;;;;;18.13;9.23;;;435.60;2073.60;;;;;;4957761;28;20217;-80
2023/02/25 11:15:26;;;;;;;28.45;15.60;;;435.70;2048.00;;;;;;4957996;28;20034;-82
2023/02/25 11:17:53;;;;;;;19.57;14.00;;;435.60;2073.60;;;;;;4957932;28;20078;-84
2023/02/25 11:20:28;;;;;;;19.58;10.75;;;435.60;2073.60;;;;;;4958375;28;20284;-86
2023/02/25 11:22:56;;;;;;;21.08;11.85;;;435.60;2073.60;;;;;;4959649;28;20055;-84
2023/02/25 11:25:52;;;;;;;16.98;9.07;;;435.60;2073.60;;;;;;4958561;28;20031;-86
2023/02/25 11:28:27;;;;;;;21.90;11.48;;;435.60;2073.60;;;;;;4959663;28;20035;-84
2023/02/25 11:30:54;;;;;;;29.75;16.80;;;435.60;2099.20;;;;;;4958219;28;20497;-83
2023/02/25 11:33:33;;;;;;;29.85;15.52;;;435.50;2073.60;;;;;;4958172;28;20037;-84
2023/02/25 11:36:00;;;;;;;21.77;13.95;;;435.50;2073.60;;;;;;4975288;28;20481;-87
2023/02/25 11:38:28;;;;;;;24.58;13.90;;;435.50;2099.20;;;;;;4958274;28;20036;-84
2023/02/25 11:40:54;;;;;;;21.90;12.38;;;435.50;2099.20;;;;;;4957929;28;20046;-83
2023/02/25 11:43:21;;;;;;;24.40;11.52;;;435.50;2099.20;;;;;;4957927;28;20484;-84
2023/02/25 11:45:56;;;;;;;22.60;14.40;;;435.50;2073.60;;;;;;4958070;28;20062;-85
2023/02/25 11:48:29;;;;;;;24.75;13.52;;;435.50;2099.20;;;;;;4958014;28;20027;-84
2023/02/25 11:51:10;;;;;;;24.00;15.13;;;435.50;2099.20;;;;;;4958082;28;20035;-83
2023/02/25 11:54:03;;;;;;;40.92;19.67;;;435.50;2099.20;;;;;;4958203;28;20069;-84
2023/02/25 11:56:37;;;;;;;25.85;15.15;;;435.60;2099.20;;;;;;4957956;28;20019;-83
2023/02/25 11:59:23;;;;;;;22.90;14.82;;;435.60;2099.20;;;;;;4963654;28;20034;-84
2023/02/25 12:01:57;;;;;;;20.67;11.05;;;435.60;2099.20;;;;;;4943908;28;20039;-84
2023/02/25 12:04:43;;;;;;;19.35;10.30;;;435.60;2099.20;;;;;;4955539;28;20043;-84
2023/02/25 12:07:33;;;;;;;24.48;9.55;;;435.60;2099.20;;;;;;4957189;28;20490;-84
2023/02/25 12:10:22;;;;;;;14.35;8.32;;;435.60;2099.20;;;;;;4979692;28;20030;-83
2023/02/25 12:13:03;;;;;;;16.65;6.88;;;435.60;2099.20;;;;;;4998317;28;20450;-82
2023/02/25 12:15:56;;;;;;;15.07;7.35;;;435.60;2099.20;;;;;;4980840;28;20030;-85
2023/02/25 12:18:40;;;;;;;21.85;12.50;;;435.60;2099.20;;;;;;4980992;28;20026;-84
2023/02/25 12:21:21;;;;;;;17.67;6.95;;;435.60;2099.20;;;;;;4980813;28;20030;-86